createdAt,value
2018-08-04T00:03:00.868Z,57.80
2018-08-04T00:07:56.016Z,57.70
2018-08-04T00:13:07.218Z,58.60
2018-08-04T00:18:32.052Z,59.30
2018-08-04T00:23:56.711Z,59.60
2018-08-04T00:29:20.361Z,59.70
2018-08-04T00:34:23.068Z,61.60
2018-08-04T00:39:18.158Z,62.40
2018-08-04T00:44:13.671Z,62.60
2018-08-04T00:54:10.549Z,63.90
2018-08-04T00:59:06.181Z,63.20
2018-08-04T01:04:01.164Z,64.00
2018-08-04T01:08:56.725Z,65.00
2018-08-04T01:13:51.904Z,64.00
2018-08-04T01:18:54.364Z,64.90
2018-08-04T01:23:49.555Z,64.70
2018-08-04T01:28:44.925Z,63.00
2018-08-04T01:33:39.889Z,64.40
2018-08-04T01:38:35.603Z,65.80
2018-08-04T01:43:30.924Z,64.90
2018-08-04T01:48:25.881Z,65.20
2018-08-04T01:53:21.263Z,65.70
2018-08-04T01:58:16.449Z,66.60
2018-08-04T02:03:19.206Z,67.40
2018-08-04T02:08:14.310Z,67.70
2018-08-04T02:13:09.528Z,66.40
2018-08-04T02:18:05.982Z,67.30
2018-08-04T02:23:00.981Z,68.50
2018-08-04T02:32:51.654Z,70.30
2018-08-04T02:37:46.699Z,69.30
2018-08-04T02:42:43.368Z,68.90
2018-08-04T02:47:38.749Z,72.50
2018-08-04T02:52:34.398Z,70.70
2018-08-04T02:57:29.609Z,70.90
2018-08-04T03:02:24.701Z,71.20
2018-08-04T03:07:20.357Z,72.80
2018-08-04T03:12:15.508Z,76.20
2018-08-04T03:17:10.715Z,75.20
2018-08-04T03:22:06.968Z,74.20
2018-08-04T03:27:03.951Z,74.80
2018-08-04T03:31:58.904Z,75.00
2018-08-04T03:36:55.713Z,75.00
2018-08-04T03:41:50.956Z,75.90
2018-08-04T03:46:46.546Z,76.80
2018-08-04T03:51:41.774Z,76.90
2018-08-04T03:56:37.472Z,77.60
2018-08-04T04:01:32.578Z,78.00
2018-08-04T04:06:27.766Z,78.10
2018-08-04T04:11:22.957Z,79.80
2018-08-04T04:16:18.194Z,80.20
2018-08-04T04:21:13.472Z,80.90
2018-08-04T04:26:09.765Z,80.10
2018-08-04T04:31:06.524Z,79.30
2018-08-04T04:36:02.586Z,78.10
2018-08-04T04:40:57.790Z,73.90
2018-08-04T04:45:53.195Z,68.90
2018-08-04T04:50:48.613Z,66.10
2018-08-04T04:55:44.273Z,63.40
2018-08-04T05:00:40.378Z,60.00
2018-08-04T05:05:35.670Z,57.40
2018-08-04T05:10:30.853Z,56.20
2018-08-04T05:15:26.035Z,56.50
2018-08-04T05:20:21.236Z,56.60
2018-08-04T05:25:16.510Z,57.60
2018-08-04T05:30:11.845Z,57.20
2018-08-04T05:40:04.677Z,63.40
2018-08-04T05:45:00.544Z,60.20
2018-08-04T05:49:55.804Z,56.40
2018-08-04T05:55:07.485Z,56.60
2018-08-04T06:00:03.477Z,55.70
2018-08-04T06:04:59.265Z,51.60
2018-08-04T06:09:54.975Z,52.50
2018-08-04T06:14:50.891Z,47.70
2018-08-04T06:19:46.246Z,43.90
2018-08-04T06:24:41.605Z,42.20
2018-08-04T06:34:31.569Z,40.00
2018-08-04T06:39:26.780Z,41.30
2018-08-04T06:44:22.506Z,45.70
2018-08-04T06:49:17.812Z,41.80
2018-08-04T06:54:13.410Z,43.10
2018-08-04T06:59:09.215Z,41.40
2018-08-04T07:04:12.106Z,44.80
2018-08-04T07:09:09.260Z,46.70
2018-08-04T07:19:00.188Z,48.70
2018-08-04T07:23:55.443Z,50.10
2018-08-04T07:28:58.362Z,48.50
2018-08-04T07:33:53.918Z,46.90
2018-08-04T07:38:50.229Z,43.70
2018-08-04T07:43:45.751Z,41.20
2018-08-04T07:48:40.874Z,40.60
2018-08-04T07:53:43.349Z,42.00
2018-08-04T07:58:38.898Z,40.90
2018-08-04T08:03:50.179Z,37.10
2018-08-04T08:08:54.018Z,34.90
2018-08-04T08:13:49.253Z,33.40
2018-08-04T08:18:44.824Z,33.80
2018-08-04T08:28:41.938Z,32.50
2018-08-04T08:33:37.807Z,29.80
2018-08-04T08:38:32.959Z,28.30
2018-08-04T08:43:28.843Z,27.90
2018-08-04T08:48:24.276Z,27.50
2018-08-04T08:53:27.832Z,27.00
2018-08-04T08:58:23.140Z,25.30
2018-08-04T09:03:18.283Z,23.90
2018-08-04T09:08:13.514Z,25.00
2018-08-04T09:13:09.387Z,24.30
2018-08-04T09:18:13.164Z,25.00
2018-08-04T09:23:08.412Z,24.80
2018-08-04T09:28:04.548Z,23.40
2018-08-04T09:32:59.979Z,23.70
2018-08-04T09:37:55.045Z,24.80
2018-08-04T09:42:57.714Z,24.30
2018-08-04T09:47:52.992Z,24.00
2018-08-04T09:52:48.051Z,23.10
2018-08-04T09:57:43.898Z,26.10
2018-08-04T10:02:39.211Z,28.40
2018-08-04T10:07:41.849Z,29.30
2018-08-04T10:12:45.019Z,29.80
2018-08-04T10:18:04.804Z,29.70
2018-08-04T10:23:09.242Z,30.80
2018-08-04T10:28:05.483Z,33.10
2018-08-04T10:33:01.095Z,32.90
2018-08-04T10:37:56.863Z,31.20
2018-08-04T10:43:00.424Z,30.80
2018-08-04T10:47:55.881Z,30.80
2018-08-04T10:52:51.268Z,31.80
2018-08-04T10:57:46.522Z,32.40
2018-08-04T11:02:41.441Z,32.90
2018-08-04T11:07:43.776Z,33.10
2018-08-04T11:17:41.772Z,30.50
2018-08-04T11:22:36.815Z,29.80
2018-08-04T11:27:32.849Z,30.10
2018-08-04T11:32:28.218Z,32.20
2018-08-04T11:37:24.241Z,31.70
2018-08-04T11:42:19.238Z,32.00
2018-08-04T11:47:14.627Z,30.30
2018-08-04T11:52:09.859Z,31.40
2018-08-04T11:57:07.887Z,32.80
2018-08-04T12:02:06.975Z,31.50
2018-08-04T12:07:04.861Z,34.90
2018-08-04T12:12:00.330Z,34.70
2018-08-04T12:16:55.574Z,36.50
2018-08-04T12:21:50.680Z,37.90
2018-08-04T12:26:45.847Z,38.30
2018-08-04T12:31:57.261Z,40.20
2018-08-04T12:37:00.294Z,39.30
2018-08-04T12:41:55.512Z,39.40
2018-08-04T12:46:51.023Z,38.90
2018-08-04T12:51:46.007Z,38.20
2018-08-04T13:08:06.085Z,38.20
2018-08-04T13:13:01.409Z,38.50
2018-08-04T13:17:57.454Z,38.50
2018-08-04T13:22:53.600Z,38.20
2018-08-04T13:32:44.075Z,36.60
2018-08-04T13:42:35.248Z,37.50
2018-08-04T13:47:30.369Z,37.50
2018-08-04T13:52:25.663Z,37.00
2018-08-04T13:57:20.784Z,37.80
2018-08-04T14:02:15.956Z,37.20
2018-08-04T14:07:11.190Z,37.60
2018-08-04T14:17:01.558Z,36.50
2018-08-04T14:21:57.309Z,35.70
2018-08-04T14:26:52.320Z,36.50
2018-08-04T14:31:48.006Z,36.60
2018-08-04T14:36:43.013Z,37.10
2018-08-04T14:41:38.597Z,37.20
2018-08-04T14:46:41.083Z,37.40
2018-08-04T14:51:36.794Z,37.60
2018-08-04T14:56:32.762Z,37.80
2018-08-04T15:01:28.106Z,37.60
2018-08-04T15:06:23.345Z,37.60
2018-08-04T15:11:26.164Z,38.60
2018-08-04T15:16:21.725Z,39.40
2018-08-04T15:21:17.035Z,39.30
2018-08-04T15:26:12.034Z,40.50
2018-08-04T15:31:07.161Z,42.40
2018-08-04T15:36:02.970Z,43.00
2018-08-04T15:40:58.240Z,43.50
2018-08-04T15:50:49.222Z,45.10
2018-08-04T15:55:44.380Z,46.20
2018-08-04T16:00:39.960Z,77.50
2018-08-04T16:05:35.422Z,94.40
2018-08-04T16:10:30.410Z,96.60
2018-08-04T16:20:21.430Z,99.90
2018-08-04T16:25:16.681Z,99.90
2018-08-04T16:30:12.038Z,98.50
2018-08-04T16:35:08.360Z,94.50
2018-08-04T16:40:04.698Z,92.30
2018-08-04T16:45:00.161Z,91.80
2018-08-04T16:49:55.750Z,91.90
2018-08-04T16:54:51.204Z,90.70
2018-08-04T16:59:46.400Z,88.00
2018-08-04T17:04:42.841Z,89.60
2018-08-04T17:20:25.144Z,92.10
2018-08-04T17:25:19.832Z,92.60
2018-08-04T17:35:08.921Z,93.40
2018-08-04T17:40:04.858Z,92.30
2018-08-04T17:44:59.896Z,91.60
2018-08-04T17:49:54.470Z,91.90
2018-08-04T17:54:56.956Z,91.10
2018-08-04T17:59:51.471Z,90.60
2018-08-04T18:04:46.117Z,89.10
2018-08-04T18:09:41.099Z,91.10
2018-08-04T18:14:36.501Z,90.30
2018-08-04T18:19:31.188Z,90.90
2018-08-04T18:29:20.304Z,92.40
2018-08-04T18:34:14.961Z,95.50
2018-08-04T18:39:10.425Z,95.80
2018-08-04T18:44:05.926Z,96.60
2018-08-04T18:54:24.261Z,96.30
2018-08-04T19:04:49.853Z,96.60
